Time;durP1;ratioP1;P1;durP2;ratioP2;P2;SDS_P1;SDS_P2;PMS_P1;PMS_P2;Temp;Humidity;BMP_temperature;BMP_pressure;BME280_temperature;BME280_humidity;BME280_pressure;Samples;Min_cycle;Max_cycle;Signal;HPM_P1;HPM_P2
2022/06/28 00:00:09;;;;;;;4.65;2.90;;;20.40;90.10;;;;;;4993960;28;20057;-79
2022/06/28 00:02:34;;;;;;;3.95;2.58;;;20.40;90.00;;;;;;4993653;28;20026;-79
2022/06/28 00:05:00;;;;;;;4.97;3.00;;;20.50;90.00;;;;;;4993932;28;20706;-80
2022/06/28 00:07:26;;;;;;;4.18;2.63;;;20.50;90.00;;;;;;4993531;28;20128;-79
2022/06/28 00:09:51;;;;;;;4.68;3.00;;;20.50;89.90;;;;;;4993753;28;20098;-79
2022/06/28 00:12:17;;;;;;;4.28;2.67;;;20.50;89.80;;;;;;5002161;28;20037;-78
2022/06/28 00:17:27;;;;;;;5.30;2.92;;;20.40;90.00;;;;;;5013004;28;20072;-81
2022/06/28 00:19:52;;;;;;;5.03;2.80;;;20.40;90.00;;;;;;5011674;28;20061;-79
2022/06/28 00:22:18;;;;;;;5.15;3.03;;;20.40;90.10;;;;;;5010957;28;20402;-82
2022/06/28 00:24:43;;;;;;;5.22;2.95;;;20.40;90.10;;;;;;5011435;28;20029;-79
2022/06/28 00:27:09;;;;;;;4.97;2.80;;;20.40;90.20;;;;;;5011380;28;20025;-81
2022/06/28 00:29:35;;;;;;;4.35;2.70;;;20.40;90.20;;;;;;5018773;28;20034;-78
2022/06/28 00:32:00;;;;;;;4.13;2.67;;;20.40;90.20;;;;;;4974196;28;20030;-79
2022/06/28 00:34:26;;;;;;;4.40;2.70;;;20.40;90.20;;;;;;4991385;28;20056;-78
2022/06/28 00:36:51;;;;;;;4.55;2.70;;;20.40;90.20;;;;;;4973706;28;20133;-80
2022/06/28 00:39:17;;;;;;;5.03;2.95;;;20.40;90.20;;;;;;4973794;28;20620;-79
2022/06/28 00:41:43;;;;;;;4.65;2.85;;;20.30;90.20;;;;;;4991002;28;20031;-77
2022/06/28 00:44:11;;;;;;;5.40;3.13;;;20.30;90.20;;;;;;4991209;28;20084;-78
2022/06/28 00:46:37;;;;;;;5.47;2.75;;;20.40;90.20;;;;;;4990780;28;20026;-79
2022/06/28 00:49:03;;;;;;;4.78;2.90;;;20.40;90.20;;;;;;4991281;28;20026;-81
2022/06/28 00:51:29;;;;;;;4.43;2.83;;;20.40;90.10;;;;;;4990823;28;20439;-78
2022/06/28 00:53:55;;;;;;;4.32;2.55;;;20.40;90.10;;;;;;4973597;28;20030;-78
2022/06/28 00:56:21;;;;;;;4.35;2.80;;;20.40;90.00;;;;;;4990364;28;20041;-79
2022/06/28 00:58:47;;;;;;;3.90;2.35;;;20.50;90.00;;;;;;4973178;28;20030;-78
2022/06/28 01:01:12;;;;;;;4.32;2.70;;;20.40;89.90;;;;;;5008642;28;20112;-78
2022/06/28 01:03:38;;;;;;;4.18;2.67;;;20.40;89.90;;;;;;5023971;28;20186;-78
2022/06/28 01:06:04;;;;;;;4.53;2.70;;;20.40;90.00;;;;;;5009847;28;20026;-79
2022/06/28 01:08:30;;;;;;;4.88;2.78;;;20.30;90.00;;;;;;5010234;28;20252;-79
2022/06/28 01:10:55;;;;;;;4.55;2.80;;;20.40;90.30;;;;;;4993166;28;20030;-78
2022/06/28 01:13:21;;;;;;;5.38;2.85;;;20.40;90.10;;;;;;4989188;28;20028;-83
2022/06/28 01:15:46;;;;;;;4.30;2.70;;;20.40;90.20;;;;;;4989288;28;20391;-77
2022/06/28 01:18:13;;;;;;;5.32;3.20;;;20.40;90.20;;;;;;4972980;28;20026;-81
2022/06/28 01:20:47;;;;;;;4.57;2.80;;;20.40;90.20;;;;;;4988971;28;20041;-78
2022/06/28 01:23:16;;;;;;;3.63;2.42;;;20.30;90.20;;;;;;4989151;28;20026;-82
2022/06/28 01:25:42;;;;;;;4.53;2.80;;;20.30;90.20;;;;;;4984950;28;20030;-78
2022/06/28 01:28:08;;;;;;;4.95;2.78;;;20.30;90.20;;;;;;4992386;28;20110;-77
2022/06/28 01:30:33;;;;;;;4.43;2.80;;;20.30;90.20;;;;;;5009663;28;20030;-80
2022/06/28 01:32:59;;;;;;;3.83;2.53;;;20.30;90.20;;;;;;4992146;28;20065;-78
2022/06/28 01:35:24;;;;;;;4.55;2.60;;;20.30;90.20;;;;;;5009344;28;20411;-79
2022/06/28 01:37:50;;;;;;;4.25;2.60;;;20.30;90.20;;;;;;5009673;28;20073;-78
2022/06/28 01:40:15;;;;;;;5.25;2.60;;;20.30;90.20;;;;;;4991743;28;20407;-81
2022/06/28 01:42:41;;;;;;;4.53;2.53;;;20.40;90.20;;;;;;4991731;28;20064;-78
2022/06/28 01:45:08;;;;;;;3.72;2.50;;;20.40;90.10;;;;;;5009218;28;20036;-79
2022/06/28 01:47:36;;;;;;;4.28;2.85;;;20.40;90.00;;;;;;4991871;28;20034;-78
2022/06/28 01:50:02;;;;;;;4.45;2.80;;;20.40;90.00;;;;;;4990540;28;20027;-79
2022/06/28 01:52:28;;;;;;;4.43;2.40;;;20.40;90.00;;;;;;5009239;28;20026;-79
2022/06/28 01:54:53;;;;;;;3.78;2.30;;;20.40;90.00;;;;;;5024473;28;20041;-78
2022/06/28 01:57:19;;;;;;;4.50;2.75;;;20.40;90.00;;;;;;5009165;28;20093;-81
2022/06/28 01:59:45;;;;;;;4.88;2.92;;;20.40;90.00;;;;;;5009305;28;20384;-79
2022/06/28 02:02:11;;;;;;;5.07;2.85;;;20.40;90.10;;;;;;5009475;28;20053;-80
2022/06/28 02:04:36;;;;;;;5.60;2.80;;;20.40;90.20;;;;;;5007406;28;20502;-78
2022/06/28 02:07:02;;;;;;;4.22;2.55;;;20.30;90.20;;;;;;4980152;28;20034;-81
2022/06/28 02:09:28;;;;;;;5.07;2.97;;;20.30;90.20;;;;;;5026557;28;20034;-79
2022/06/28 02:11:54;;;;;;;4.97;2.67;;;20.30;90.20;;;;;;5011071;28;20022;-81
2022/06/28 02:14:20;;;;;;;5.13;2.60;;;20.30;90.20;;;;;;5011452;28;20030;-79
2022/06/28 02:16:46;;;;;;;4.25;2.90;;;20.30;90.20;;;;;;4994083;28;20025;-81
2022/06/28 02:19:12;;;;;;;3.63;2.45;;;20.30;90.20;;;;;;5025904;28;20444;-79
2022/06/28 02:21:40;;;;;;;4.78;2.78;;;20.30;90.20;;;;;;4992926;28;20085;-79
2022/06/28 02:24:06;;;;;;;3.78;2.30;;;20.30;90.20;;;;;;4992761;28;20080;-80
2022/06/28 02:26:32;;;;;;;4.78;2.67;;;20.30;90.20;;;;;;4992636;28;20022;-79
2022/06/28 02:29:02;;;;;;;4.07;2.63;;;20.30;90.20;;;;;;5010106;28;20033;-80
2022/06/28 02:31:28;;;;;;;3.58;2.38;;;20.30;90.20;;;;;;5010558;28;20026;-80
2022/06/28 02:33:54;;;;;;;4.00;2.60;;;20.30;90.20;;;;;;5025047;28;20036;-78
2022/06/28 02:41:49;;;;;;;4.00;2.47;;;20.40;90.00;;;;;;5009801;28;20044;-79
2022/06/28 02:44:17;;;;;;;5.07;2.60;;;20.40;90.00;;;;;;4990042;28;20105;-79
2022/06/28 02:46:44;;;;;;;4.88;2.47;;;20.40;90.00;;;;;;5023798;28;20033;-80
2022/06/28 02:49:10;;;;;;;4.00;2.70;;;20.40;90.00;;;;;;5024744;28;20025;-79
2022/06/28 02:51:35;;;;;;;4.35;2.83;;;20.40;90.00;;;;;;5005534;28;20049;-78
2022/06/28 02:54:01;;;;;;;4.53;2.58;;;20.30;90.10;;;;;;5024570;28;20127;-77
2022/06/28 02:56:26;;;;;;;3.92;2.60;;;20.30;90.20;;;;;;5023700;28;20025;-80
2022/06/28 02:58:52;;;;;;;4.25;2.70;;;20.30;90.40;;;;;;4991408;28;20030;-79
2022/06/28 03:01:17;;;;;;;5.03;2.90;;;20.30;90.20;;;;;;5008826;28;20030;-79
2022/06/28 03:03:43;;;;;;;4.68;2.60;;;20.30;90.30;;;;;;5009014;28;20026;-78
2022/06/28 03:06:08;;;;;;;3.88;2.60;;;20.30;90.20;;;;;;5026614;28;20113;-78
2022/06/28 03:08:34;;;;;;;3.90;2.40;;;20.20;90.20;;;;;;4994827;28;20113;-78
2022/06/28 03:10:59;;;;;;;4.43;2.42;;;20.30;90.50;;;;;;5012500;28;20044;-78
2022/06/28 03:13:26;;;;;;;4.60;2.63;;;20.20;90.20;;;;;;4994341;28;20034;-79
2022/06/28 03:15:51;;;;;;;4.47;2.75;;;20.30;90.30;;;;;;5027484;28;20034;-79
2022/06/28 03:18:17;;;;;;;4.80;2.63;;;20.30;90.30;;;;;;5026657;28;20033;-79
2022/06/28 03:20:44;;;;;;;3.95;2.55;;;20.20;90.20;;;;;;5011789;28;20034;-78
2022/06/28 03:23:09;;;;;;;3.35;2.20;;;20.30;90.20;;;;;;4996216;28;20049;-78
2022/06/28 03:25:35;;;;;;;4.28;2.55;;;20.30;90.20;;;;;;4990929;28;20476;-78
2022/06/28 03:28:00;;;;;;;4.53;2.58;;;20.30;90.10;;;;;;5022392;28;20555;-79
2022/06/28 03:30:26;;;;;;;3.58;2.40;;;20.30;90.00;;;;;;5014044;28;20041;-78
2022/06/28 03:32:51;;;;;;;3.65;2.42;;;20.40;90.00;;;;;;4996045;28;20041;-79
2022/06/28 03:35:17;;;;;;;4.70;2.90;;;20.40;90.00;;;;;;5014416;28;20081;-79
2022/06/28 03:37:43;;;;;;;5.05;2.90;;;20.40;89.90;;;;;;5013113;28;20084;-81
2022/06/28 03:40:09;;;;;;;4.32;2.70;;;20.30;90.00;;;;;;5013689;28;20033;-79
2022/06/28 03:42:36;;;;;;;4.88;2.85;;;20.30;90.00;;;;;;4995085;28;20579;-79
2022/06/28 03:45:02;;;;;;;4.25;2.75;;;20.30;90.10;;;;;;5012771;28;20041;-80
2022/06/28 03:47:28;;;;;;;4.32;2.55;;;20.30;90.20;;;;;;4994861;28;20021;-77
2022/06/28 03:49:53;;;;;;;4.47;2.65;;;20.30;90.20;;;;;;5013231;28;20034;-79
2022/06/28 03:52:19;;;;;;;4.55;2.80;;;20.20;90.20;;;;;;5012151;28;20811;-79
2022/06/28 03:54:44;;;;;;;4.38;2.70;;;20.30;90.20;;;;;;5027067;28;20264;-78
2022/06/28 03:57:10;;;;;;;3.40;2.40;;;20.30;90.20;;;;;;5026910;28;20124;-80
2022/06/28 03:59:36;;;;;;;4.40;2.70;;;20.30;90.20;;;;;;5011935;28;20042;-78
2022/06/28 04:02:03;;;;;;;4.07;2.80;;;20.30;90.20;;;;;;5011834;28;20022;-78
2022/06/28 04:04:29;;;;;;;4.28;2.70;;;20.20;90.20;;;;;;5026821;28;20033;-79
2022/06/28 04:06:54;;;;;;;4.80;3.00;;;20.20;90.20;;;;;;5011616;28;20109;-79
2022/06/28 04:09:20;;;;;;;4.35;2.90;;;20.20;90.20;;;;;;5011927;28;20853;-78
2022/06/28 04:11:46;;;;;;;4.47;2.78;;;20.20;90.20;;;;;;5011722;28;20805;-77
2022/06/28 04:14:13;;;;;;;4.28;2.75;;;20.20;90.10;;;;;;5011529;28;20037;-78
2022/06/28 04:16:41;;;;;;;4.28;2.80;;;20.20;90.10;;;;;;5025965;28;20519;-78
2022/06/28 04:19:07;;;;;;;4.57;2.70;;;20.30;90.00;;;;;;5026417;28;20038;-78
2022/06/28 04:21:33;;;;;;;4.68;2.70;;;20.30;90.00;;;;;;5011335;28;20479;-78
2022/06/28 04:23:58;;;;;;;5.03;3.00;;;20.40;90.00;;;;;;5010931;28;20061;-78
2022/06/28 04:26:24;;;;;;;5.38;3.28;;;20.30;89.90;;;;;;4993242;28;20406;-79
2022/06/28 04:28:49;;;;;;;4.65;2.90;;;20.40;89.90;;;;;;5025817;28;20030;-78
2022/06/28 04:31:15;;;;;;;5.25;3.13;;;20.30;89.80;;;;;;5012819;28;20034;-81
2022/06/28 04:33:41;;;;;;;5.13;3.03;;;20.30;89.90;;;;;;5028403;28;20029;-78
2022/06/28 04:36:07;;;;;;;5.10;3.40;;;20.30;90.00;;;;;;5022144;28;20878;-77
2022/06/28 04:38:32;;;;;;;5.07;3.33;;;20.30;90.00;;;;;;5013764;28;20038;-78
2022/06/28 04:40:58;;;;;;;5.70;3.40;;;20.30;90.10;;;;;;5013372;28;20112;-78
2022/06/28 04:43:24;;;;;;;4.88;3.03;;;20.30;90.10;;;;;;5031958;28;20073;-78
2022/06/28 04:45:49;;;;;;;5.40;2.97;;;20.30;90.20;;;;;;4996921;28;20034;-82
2022/06/28 04:48:15;;;;;;;4.85;3.03;;;20.30;90.20;;;;;;5022428;28;20034;-78
2022/06/28 04:50:41;;;;;;;5.68;2.88;;;20.20;90.10;;;;;;5009343;28;20080;-79
2022/06/28 04:53:06;;;;;;;4.88;3.10;;;20.30;90.10;;;;;;5013085;28;20125;-78
2022/06/28 04:55:32;;;;;;;4.93;3.13;;;20.30;90.10;;;;;;5012390;28;20414;-80
2022/06/28 04:57:57;;;;;;;5.05;3.20;;;20.30;90.10;;;;;;5011412;28;20084;-79
2022/06/28 05:00:23;;;;;;;5.20;3.25;;;20.30;90.10;;;;;;5007700;28;20447;-80
2022/06/28 05:02:48;;;;;;;4.95;3.03;;;20.20;90.20;;;;;;4998440;28;20029;-76
2022/06/28 05:05:14;;;;;;;5.03;3.17;;;20.20;90.00;;;;;;5006994;28;20423;-80
2022/06/28 05:07:40;;;;;;;4.78;3.15;;;20.30;90.00;;;;;;4992695;28;20092;-77
2022/06/28 05:10:06;;;;;;;4.93;3.05;;;20.30;90.00;;;;;;4992896;28;20038;-79
2022/06/28 05:12:31;;;;;;;4.60;2.80;;;20.30;89.80;;;;;;4991426;28;20030;-78
2022/06/28 05:14:57;;;;;;;5.18;3.22;;;20.30;89.60;;;;;;4991750;28;20097;-77
2022/06/28 05:17:23;;;;;;;5.50;3.35;;;20.40;89.50;;;;;;4999393;28;20030;-78
2022/06/28 05:19:49;;;;;;;5.78;3.53;;;20.40;89.40;;;;;;4975146;28;20041;-78
2022/06/28 05:22:14;;;;;;;5.95;3.53;;;20.40;89.50;;;;;;4975087;28;20113;-78
2022/06/28 05:24:40;;;;;;;5.63;3.60;;;20.40;89.40;;;;;;4995032;28;20518;-80
2022/06/28 05:27:06;;;;;;;5.63;3.70;;;20.30;89.50;;;;;;4996957;28;20031;-78
2022/06/28 05:29:31;;;;;;;6.05;4.05;;;20.30;89.50;;;;;;4977116;28;20026;-78
2022/06/28 05:31:57;;;;;;;5.65;3.58;;;20.30;89.60;;;;;;5004708;28;20038;-78
2022/06/28 05:34:23;;;;;;;5.95;3.70;;;20.20;89.80;;;;;;5028765;28;20044;-78
2022/06/28 05:36:48;;;;;;;5.47;3.80;;;20.30;89.80;;;;;;5012434;28;20475;-78
2022/06/28 05:39:14;;;;;;;6.43;3.90;;;20.30;89.80;;;;;;5008057;28;20458;-78
2022/06/28 05:41:41;;;;;;;7.03;3.75;;;20.30;90.00;;;;;;5007878;28;20084;-78
2022/06/28 05:44:08;;;;;;;6.18;3.70;;;20.30;89.90;;;;;;5007971;28;20025;-78
2022/06/28 05:46:34;;;;;;;5.88;3.60;;;20.30;89.90;;;;;;5007138;28;20439;-77
2022/06/28 05:48:59;;;;;;;7.57;4.35;;;20.30;89.80;;;;;;5007751;28;20034;-78
2022/06/28 05:51:25;;;;;;;6.35;4.18;;;20.30;89.70;;;;;;5007869;28;20083;-78
2022/06/28 05:53:50;;;;;;;6.85;4.00;;;20.30;89.80;;;;;;5007400;28;20040;-78
2022/06/28 05:56:16;;;;;;;6.53;4.25;;;20.30;89.60;;;;;;4990268;28;20041;-77
2022/06/28 05:58:42;;;;;;;6.53;4.25;;;20.40;89.60;;;;;;4990867;28;20092;-78
2022/06/28 06:01:07;;;;;;;6.53;4.28;;;20.40;89.40;;;;;;4990422;28;20872;-77
2022/06/28 06:03:33;;;;;;;6.38;3.58;;;20.40;89.40;;;;;;5007399;28;20060;-77
2022/06/28 06:05:59;;;;;;;6.38;3.90;;;20.40;89.20;;;;;;4989927;28;20026;-79
2022/06/28 06:08:24;;;;;;;7.45;4.05;;;20.40;89.10;;;;;;5006858;28;20030;-77
2022/06/28 06:10:50;;;;;;;6.65;3.60;;;20.40;89.00;;;;;;5023079;28;20084;-79
2022/06/28 06:13:15;;;;;;;6.93;3.92;;;20.40;89.10;;;;;;4990338;28;20121;-77
2022/06/28 06:15:41;;;;;;;6.72;4.35;;;20.40;89.10;;;;;;4990247;28;20383;-77
2022/06/28 06:18:07;;;;;;;6.47;3.88;;;20.40;89.20;;;;;;4990663;28;20113;-78
2022/06/28 06:20:32;;;;;;;6.32;4.15;;;20.40;89.20;;;;;;5007900;28;20030;-77
2022/06/28 06:22:57;;;;;;;6.50;3.95;;;20.40;89.30;;;;;;4990345;28;20030;-77
2022/06/28 06:25:23;;;;;;;9.05;4.00;;;20.40;89.40;;;;;;5007352;28;20066;-77
2022/06/28 06:27:49;;;;;;;6.15;3.58;;;20.40;89.40;;;;;;4990651;28;20048;-77
2022/06/28 06:30:14;;;;;;;6.95;3.70;;;20.40;89.30;;;;;;4990232;28;20354;-77
2022/06/28 06:32:40;;;;;;;5.88;3.63;;;20.40;89.30;;;;;;4989899;28;20030;-77
2022/06/28 06:35:07;;;;;;;5.38;3.38;;;20.40;89.20;;;;;;4990075;28;20080;-77
2022/06/28 06:37:32;;;;;;;6.80;3.70;;;20.40;89.20;;;;;;5007099;28;20457;-77
2022/06/28 06:39:58;;;;;;;6.00;4.05;;;20.40;89.20;;;;;;5010141;28;20121;-78
2022/06/28 06:42:23;;;;;;;6.53;3.90;;;20.40;89.20;;;;;;4993914;28;20164;-78
2022/06/28 06:44:49;;;;;;;6.32;3.90;;;20.40;89.20;;;;;;5011030;28;20101;-78
2022/06/28 06:47:14;;;;;;;7.25;4.10;;;20.40;89.20;;;;;;4992894;28;20018;-78
2022/06/28 06:49:40;;;;;;;6.50;3.80;;;20.40;89.10;;;;;;5010725;28;20037;-80
2022/06/28 06:52:06;;;;;;;6.07;3.63;;;20.50;89.00;;;;;;5010870;28;20022;-78
2022/06/28 06:54:31;;;;;;;6.40;3.67;;;20.50;88.80;;;;;;5011807;28;20062;-79
2022/06/28 06:56:57;;;;;;;5.15;3.55;;;20.60;88.60;;;;;;5010550;28;20026;-77
2022/06/28 06:59:22;;;;;;;5.38;3.53;;;20.60;88.40;;;;;;5010570;28;20633;-79
2022/06/28 07:01:48;;;;;;;6.05;4.05;;;20.60;88.30;;;;;;5011054;28;20042;-79
2022/06/28 07:04:15;;;;;;;6.20;3.95;;;20.60;88.70;;;;;;5010379;28;20080;-79
2022/06/28 07:06:40;;;;;;;6.10;3.85;;;20.60;88.20;;;;;;5011361;28;20069;-78
2022/06/28 07:09:06;;;;;;;5.18;3.50;;;20.60;88.30;;;;;;5011445;28;20058;-78
2022/06/28 07:11:33;;;;;;;6.32;4.03;;;20.60;88.30;;;;;;5010276;28;20028;-78
2022/06/28 07:13:59;;;;;;;5.68;3.42;;;20.50;88.30;;;;;;4993664;28;20028;-77
2022/06/28 07:16:24;;;;;;;5.60;3.83;;;20.60;88.40;;;;;;4993693;28;20104;-78
2022/06/28 07:18:50;;;;;;;6.65;3.90;;;20.60;88.30;;;;;;4993582;28;20034;-79
2022/06/28 07:21:15;;;;;;;6.32;3.55;;;20.60;88.40;;;;;;4993427;28;20827;-78
2022/06/28 07:23:41;;;;;;;6.45;3.80;;;20.60;88.20;;;;;;4993449;28;20022;-77
2022/06/28 07:26:07;;;;;;;5.72;3.50;;;20.60;88.20;;;;;;5010498;28;20026;-78
2022/06/28 07:28:32;;;;;;;6.53;4.10;;;20.60;88.50;;;;;;5009672;28;20121;-77
2022/06/28 07:30:58;;;;;;;6.50;3.97;;;20.60;88.20;;;;;;5009668;28;20145;-77
2022/06/28 07:33:23;;;;;;;5.97;3.78;;;20.60;88.20;;;;;;5011347;28;20064;-78
2022/06/28 07:35:49;;;;;;;7.10;4.35;;;20.60;88.10;;;;;;5009508;28;20313;-77
2022/06/28 07:38:14;;;;;;;6.40;4.00;;;20.70;88.30;;;;;;5009512;28;20545;-78
2022/06/28 07:40:40;;;;;;;6.85;4.35;;;20.60;88.20;;;;;;4992890;28;20041;-79
2022/06/28 07:43:06;;;;;;;6.38;4.13;;;20.70;88.10;;;;;;5009466;28;20073;-77
2022/06/28 07:45:36;;;;;;;6.68;4.05;;;20.70;87.90;;;;;;5010554;28;20038;-78
2022/06/28 07:48:02;;;;;;;6.50;4.40;;;20.80;87.80;;;;;;5009094;28;20072;-78
2022/06/28 07:53:11;;;;;;;6.40;4.20;;;20.80;87.30;;;;;;5010733;28;20088;-77
2022/06/28 07:55:37;;;;;;;6.55;4.15;;;20.90;87.30;;;;;;4992340;28;20029;-78
2022/06/28 07:58:02;;;;;;;6.30;4.10;;;20.90;87.30;;;;;;5010290;28;20407;-78
2022/06/28 08:00:28;;;;;;;6.60;4.28;;;20.80;87.30;;;;;;4992367;28;20026;-78
2022/06/28 08:02:53;;;;;;;6.93;4.00;;;20.80;87.30;;;;;;5010111;28;20057;-78
2022/06/28 08:05:19;;;;;;;6.20;4.30;;;20.80;87.20;;;;;;5008372;28;20026;-77
2022/06/28 08:07:45;;;;;;;6.00;4.15;;;20.80;87.30;;;;;;5008624;28;20026;-77
2022/06/28 08:10:11;;;;;;;6.05;4.00;;;20.80;87.20;;;;;;5009662;28;20028;-78
2022/06/28 08:12:37;;;;;;;6.20;4.10;;;20.90;87.30;;;;;;4992206;28;20033;-77
2022/06/28 08:15:03;;;;;;;6.85;4.53;;;20.90;87.30;;;;;;4991912;28;20026;-77
2022/06/28 08:17:29;;;;;;;6.88;4.30;;;20.90;87.20;;;;;;5009346;28;20079;-77
2022/06/28 08:19:54;;;;;;;6.30;4.40;;;20.90;87.10;;;;;;5009732;28;20034;-77
2022/06/28 08:22:20;;;;;;;6.40;4.22;;;20.90;87.00;;;;;;5008363;28;20321;-79
2022/06/28 08:24:45;;;;;;;6.97;4.25;;;20.90;87.00;;;;;;5009546;28;20055;-77
2022/06/28 08:27:11;;;;;;;7.50;4.03;;;20.90;87.10;;;;;;5009199;28;20532;-77
2022/06/28 08:29:37;;;;;;;6.38;4.50;;;20.90;87.00;;;;;;4991817;28;20033;-78
2022/06/28 08:32:03;;;;;;;6.60;4.60;;;21.00;87.10;;;;;;5009465;28;20026;-78
2022/06/28 08:34:29;;;;;;;6.55;4.40;;;20.90;86.90;;;;;;5009309;28;20030;-77
2022/06/28 08:36:55;;;;;;;7.32;4.55;;;21.00;86.70;;;;;;5009054;28;20403;-77
2022/06/28 08:39:20;;;;;;;6.53;4.53;;;21.10;86.50;;;;;;4991797;28;20029;-78
2022/06/28 08:41:46;;;;;;;6.70;4.30;;;21.10;86.40;;;;;;4991431;28;20441;-79
2022/06/28 08:44:13;;;;;;;6.00;4.15;;;21.20;86.20;;;;;;4991150;28;20029;-78
2022/06/28 08:46:39;;;;;;;6.28;4.43;;;21.20;86.20;;;;;;4992205;28;20030;-77
2022/06/28 08:49:13;;;;;;;6.30;4.28;;;21.10;86.00;;;;;;5025565;28;20033;-79
2022/06/28 08:51:40;;;;;;;6.18;4.38;;;21.10;86.10;;;;;;4992740;28;20125;-78
2022/06/28 08:54:06;;;;;;;6.20;4.20;;;21.10;86.10;;;;;;5025440;28;20148;-78
2022/06/28 08:56:32;;;;;;;7.22;4.80;;;21.10;86.10;;;;;;5009726;28;20037;-79
2022/06/28 08:58:59;;;;;;;6.68;4.35;;;21.10;86.20;;;;;;5008567;28;20034;-79
2022/06/28 09:01:26;;;;;;;6.85;4.03;;;21.10;86.20;;;;;;4992012;28;20028;-77
2022/06/28 09:03:53;;;;;;;6.95;4.22;;;21.10;86.20;;;;;;4991163;28;20837;-78
2022/06/28 09:06:19;;;;;;;6.60;4.10;;;21.10;86.30;;;;;;5009327;28;20037;-78
2022/06/28 09:08:45;;;;;;;6.05;4.22;;;21.10;86.30;;;;;;5008269;28;20022;-78
2022/06/28 09:11:11;;;;;;;8.25;4.03;;;21.10;86.30;;;;;;4992154;28;20514;-77
2022/06/28 09:13:37;;;;;;;7.13;4.45;;;21.10;86.30;;;;;;4990794;28;20034;-78
2022/06/28 09:16:05;;;;;;;6.63;4.38;;;21.20;86.40;;;;;;4991158;28;20030;-78
2022/06/28 09:18:36;;;;;;;6.25;4.22;;;21.20;86.40;;;;;;4991851;28;20030;-78
2022/06/28 09:21:09;;;;;;;;;;;21.20;86.40;;;;;;5025056;28;20030;-78
2022/06/28 09:23:37;;;;;;;6.45;4.07;;;21.20;86.40;;;;;;4991303;28;19909;-78
2022/06/28 09:26:12;;;;;;;6.13;3.97;;;21.20;86.20;;;;;;5009086;28;20030;-77
2022/06/28 09:28:46;;;;;;;5.95;3.83;;;21.30;86.10;;;;;;4991297;28;20021;-79
2022/06/28 09:31:19;;;;;;;6.28;4.15;;;21.30;86.00;;;;;;4991428;28;20026;-78
2022/06/28 09:34:03;;;;;;;6.78;4.43;;;21.30;85.80;;;;;;5023631;28;20029;-78
2022/06/28 09:36:31;;;;;;;6.07;4.00;;;21.30;85.70;;;;;;5008477;28;20080;-78
2022/06/28 09:38:59;;;;;;;6.25;3.95;;;21.30;85.60;;;;;;5008373;28;20049;-78
2022/06/28 09:41:29;;;;;;;6.00;3.95;;;21.30;85.60;;;;;;5008382;28;20171;-80
2022/06/28 09:44:00;;;;;;;6.22;3.58;;;21.30;85.70;;;;;;5008386;28;20028;-78
2022/06/28 09:46:27;;;;;;;5.85;3.80;;;21.30;85.70;;;;;;4990733;28;20156;-79
2022/06/28 09:49:01;;;;;;;6.13;3.85;;;21.30;85.80;;;;;;5008382;28;20030;-77
2022/06/28 09:51:29;;;;;;;6.03;3.60;;;21.30;85.80;;;;;;5023320;28;20041;-78
2022/06/28 09:54:05;;;;;;;5.55;3.60;;;21.30;85.80;;;;;;5008098;28;20018;-77
2022/06/28 09:56:55;;;;;;;6.95;3.30;;;21.20;85.90;;;;;;4990109;28;20083;-77
2022/06/28 09:59:26;;;;;;;6.30;4.00;;;21.30;85.90;;;;;;5001762;28;20658;-77
2022/06/28 10:01:56;;;;;;;6.20;3.80;;;21.30;85.90;;;;;;4989890;28;20128;-78
2022/06/28 10:04:27;;;;;;;6.00;3.92;;;21.30;85.90;;;;;;4990595;28;20113;-78
2022/06/28 10:06:53;;;;;;;5.43;3.50;;;21.30;85.90;;;;;;4989489;28;20025;-77
2022/06/28 10:09:20;;;;;;;5.53;3.60;;;21.30;85.90;;;;;;4991967;28;20088;-78
2022/06/28 10:15:04;;;;;;;5.43;3.40;;;21.30;86.00;;;;;;4964909;28;20034;-78
2022/06/28 10:17:39;;;;;;;5.13;3.35;;;21.30;86.10;;;;;;4990930;28;20030;-79
2022/06/28 10:20:09;;;;;;;4.63;3.00;;;21.30;86.00;;;;;;5024571;28;20411;-78
2022/06/28 10:22:34;;;;;;;5.28;3.53;;;21.30;85.90;;;;;;5009342;28;20116;-77
2022/06/28 10:25:02;;;;;;;5.93;3.33;;;21.30;85.80;;;;;;5008903;28;20041;-79
2022/06/28 10:27:29;;;;;;;5.40;3.25;;;21.30;85.90;;;;;;4991021;28;20049;-79
2022/06/28 10:30:00;;;;;;;5.20;3.42;;;21.30;85.90;;;;;;4991369;28;20089;-78
2022/06/28 10:32:42;;;;;;;5.38;3.20;;;21.30;85.90;;;;;;5023956;28;20034;-79
2022/06/28 10:35:08;;;;;;;5.57;3.22;;;21.30;85.90;;;;;;5008700;28;20029;-78
2022/06/28 10:37:33;;;;;;;4.97;3.13;;;21.30;86.00;;;;;;5008082;28;20042;-77
2022/06/28 10:40:24;;;;;;;5.28;3.40;;;21.20;86.00;;;;;;5006974;28;20030;-77
2022/06/28 10:42:50;;;;;;;;;;;21.30;86.20;;;;;;5023381;28;20410;-78
2022/06/28 10:45:16;;;;;;;5.05;3.13;;;21.20;86.30;;;;;;4990612;28;19909;-78
2022/06/28 10:48:08;;;;;;;5.82;3.40;;;21.30;86.30;;;;;;5007719;28;20509;-78
2022/06/28 10:50:54;;;;;;;5.63;3.40;;;21.20;86.30;;;;;;5022854;28;20415;-77
2022/06/28 10:53:20;;;;;;;5.13;3.10;;;21.30;86.30;;;;;;5023411;28;20038;-77
2022/06/28 10:56:12;;;;;;;5.15;3.30;;;21.30;86.20;;;;;;4990671;28;20044;-78
2022/06/28 10:58:57;;;;;;;5.30;3.40;;;21.30;86.20;;;;;;5022516;28;20068;-79
2022/06/28 11:01:42;;;;;;;4.80;2.88;;;21.30;86.20;;;;;;4990534;28;20022;-78
2022/06/28 11:04:12;;;;;;;4.53;2.88;;;21.30;86.10;;;;;;5007597;28;20487;-78
2022/06/28 11:06:48;;;;;;;6.13;3.13;;;21.30;86.00;;;;;;5022578;28;20030;-80
2022/06/28 11:09:45;;;;;;;5.50;3.30;;;21.40;86.00;;;;;;5007863;28;20117;-78
2022/06/28 11:12:16;;;;;;;4.82;2.90;;;21.30;85.80;;;;;;5007983;28;20097;-78
2022/06/28 11:14:52;;;;;;;4.93;2.85;;;21.40;85.80;;;;;;4990221;28;20037;-78
2022/06/28 11:17:27;;;;;;;5.50;2.85;;;21.40;85.70;;;;;;5022251;28;20105;-77
2022/06/28 11:20:01;;;;;;;4.78;2.90;;;21.40;85.60;;;;;;4990117;28;20053;-78
2022/06/28 11:22:32;;;;;;;5.32;3.00;;;21.40;85.80;;;;;;4989304;28;20034;-78
2022/06/28 11:25:01;;;;;;;4.75;2.97;;;21.30;85.90;;;;;;4990381;28;20026;-78
2022/06/28 11:27:27;;;;;;;4.53;2.90;;;21.30;86.00;;;;;;5026163;28;20056;-79
2022/06/28 11:30:01;;;;;;;4.97;3.05;;;21.30;86.20;;;;;;4993946;28;20052;-78
2022/06/28 11:32:30;;;;;;;5.03;2.85;;;21.20;86.30;;;;;;5026318;28;20030;-79
2022/06/28 11:34:59;;;;;;;4.85;2.90;;;21.20;86.20;;;;;;4993441;28;20060;-78
2022/06/28 11:37:25;;;;;;;5.25;3.17;;;21.30;86.30;;;;;;5026024;28;20069;-78
2022/06/28 11:39:53;;;;;;;4.90;2.83;;;21.30;86.40;;;;;;5025896;28;20450;-78
2022/06/28 11:42:18;;;;;;;5.30;2.95;;;21.20;86.30;;;;;;5010903;28;20030;-78
2022/06/28 11:44:46;;;;;;;5.00;3.08;;;21.30;86.40;;;;;;5010680;28;20072;-78
2022/06/28 11:47:13;;;;;;;4.50;2.42;;;21.20;86.40;;;;;;4992607;28;20157;-77
2022/06/28 11:49:39;;;;;;;4.35;2.65;;;21.20;86.40;;;;;;5025554;28;20022;-78
2022/06/28 11:52:04;;;;;;;5.20;2.60;;;21.30;86.60;;;;;;4992609;28;20022;-78
2022/06/28 11:54:30;;;;;;;4.38;2.88;;;21.30;86.60;;;;;;5010519;28;20037;-78
2022/06/28 11:56:55;;;;;;;3.97;2.47;;;21.20;86.50;;;;;;4992426;28;20037;-79
2022/06/28 11:59:58;;;;;;;4.20;2.60;;;21.30;86.50;;;;;;4992801;28;20030;-78
2022/06/28 12:02:49;;;;;;;4.55;2.60;;;21.30;86.40;;;;;;5010202;28;20034;-77
2022/06/28 12:05:33;;;;;;;3.95;2.58;;;21.30;86.30;;;;;;4992426;28;20053;-79
2022/06/28 12:08:00;;;;;;;4.55;2.70;;;21.30;86.20;;;;;;5011046;28;20095;-78
2022/06/28 12:10:28;;;;;;;4.75;2.70;;;21.30;86.20;;;;;;4993734;28;20034;-78
2022/06/28 12:12:58;;;;;;;5.03;2.70;;;21.30;86.10;;;;;;4993682;28;20030;-78
2022/06/28 12:15:32;;;;;;;3.88;2.20;;;21.30;86.20;;;;;;4993651;28;20030;-78
2022/06/28 12:18:03;;;;;;;5.10;2.78;;;21.20;86.20;;;;;;5010501;28;20093;-79
2022/06/28 12:20:30;;;;;;;4.50;2.72;;;21.20;86.30;;;;;;5010757;28;20033;-79
2022/06/28 12:23:05;;;;;;;3.83;2.25;;;21.30;86.40;;;;;;4993113;28;20040;-77
2022/06/28 12:25:32;;;;;;;3.75;2.30;;;21.30;86.50;;;;;;5010761;28;20553;-77
2022/06/28 12:27:58;;;;;;;4.95;2.55;;;21.20;86.60;;;;;;5009933;28;20079;-78
2022/06/28 12:30:24;;;;;;;3.83;2.40;;;21.20;86.70;;;;;;5010862;28;20471;-79
2022/06/28 12:32:52;;;;;;;4.50;2.60;;;21.20;86.70;;;;;;4992500;28;20026;-78
2022/06/28 12:35:18;;;;;;;4.35;2.67;;;21.20;86.80;;;;;;4992091;28;20411;-78
2022/06/28 12:37:44;;;;;;;4.95;2.88;;;21.10;86.90;;;;;;5009416;28;20064;-78
2022/06/28 12:40:10;;;;;;;3.95;2.50;;;21.10;86.90;;;;;;5008440;28;20030;-77
2022/06/28 12:42:36;;;;;;;4.32;2.72;;;21.20;87.00;;;;;;4991794;28;20026;-78
2022/06/28 12:45:02;;;;;;;3.70;2.42;;;21.20;87.10;;;;;;4991802;28;20060;-77
2022/06/28 12:47:34;;;;;;;4.65;2.50;;;21.20;87.10;;;;;;4991581;28;20048;-79
2022/06/28 12:50:04;;;;;;;3.75;2.35;;;21.10;87.10;;;;;;4991983;28;20483;-77
2022/06/28 12:52:30;;;;;;;3.50;2.38;;;21.10;87.00;;;;;;4991891;28;20543;-77
2022/06/28 12:54:59;;;;;;;4.13;2.45;;;21.20;86.90;;;;;;4991981;28;20380;-78
2022/06/28 12:57:28;;;;;;;3.88;2.20;;;21.10;86.80;;;;;;4991329;28;20053;-77
2022/06/28 12:59:54;;;;;;;3.42;2.20;;;21.20;86.80;;;;;;5008177;28;20656;-78
2022/06/28 13:02:20;;;;;;;4.57;2.80;;;21.20;86.70;;;;;;5009416;28;20018;-78